Union Hill, New York
Current Conditions -  °F | °C
As of 9:54 PM on Thursday 27 Nov 2014 (Local Time) from KROC Reporting Station
Overcast Overcast  
Wind Chill: 25°   Ceiling: 8000
Heat Index: 31°   Visibility: 10mi
Dew Point: 22°   Wind: 6mph
Humidity: 69%   Direction: 330°NNW
Pressure: 30.08"   Gusts: NA
Location:  43.22°N, 77.37°W
Report Text: KROC 280254Z 33005KT 10SM BKN080 OVC120 M01/M06 A3008 RMK AO2 SLP197 T10061056 52004
Loading
Personal Weather Stations






























Interactive Weather Map New forecast layout! Learn more

10-Day Weather Forecast

Advertisements
Track Severe Weather on mobile